sensor_id;sensor_type;location;lat;lon;timestamp;temperature;humidity
40289;DHT22;28991;52.028;5.526;2023-05-10T00:00:12;20.10;63.10
40289;DHT22;28991;52.028;5.526;2023-05-10T00:02:37;20.10;63.10
40289;DHT22;28991;52.028;5.526;2023-05-10T00:05:04;20.20;63.20
40289;DHT22;28991;52.028;5.526;2023-05-10T00:07:30;20.10;63.10
40289;DHT22;28991;52.028;5.526;2023-05-10T00:09:56;20.10;63.10
40289;DHT22;28991;52.028;5.526;2023-05-10T00:12:21;20.30;63.20
40289;DHT22;28991;52.028;5.526;2023-05-10T00:14:47;20.10;63.10
40289;DHT22;28991;52.028;5.526;2023-05-10T00:17:12;20.10;63.10
40289;DHT22;28991;52.028;5.526;2023-05-10T00:19:38;20.10;63.10
40289;DHT22;28991;52.028;5.526;2023-05-10T00:22:04;20.10;63.10
40289;DHT22;28991;52.028;5.526;2023-05-10T00:24:29;20.30;63.20
40289;DHT22;28991;52.028;5.526;2023-05-10T00:26:55;20.00;63.10
40289;DHT22;28991;52.028;5.526;2023-05-10T00:29:20;20.10;63.10
40289;DHT22;28991;52.028;5.526;2023-05-10T00:31:46;20.10;63.10
40289;DHT22;28991;52.028;5.526;2023-05-10T00:34:11;20.10;63.10
40289;DHT22;28991;52.028;5.526;2023-05-10T00:36:37;20.10;63.10
40289;DHT22;28991;52.028;5.526;2023-05-10T00:39:03;20.10;63.10
40289;DHT22;28991;52.028;5.526;2023-05-10T00:41:29;20.10;63.10
40289;DHT22;28991;52.028;5.526;2023-05-10T00:43:58;20.10;63.10
40289;DHT22;28991;52.028;5.526;2023-05-10T00:46:24;20.10;63.10
40289;DHT22;28991;52.028;5.526;2023-05-10T00:48:51;20.30;63.20
40289;DHT22;28991;52.028;5.526;2023-05-10T00:51:17;20.10;63.10
40289;DHT22;28991;52.028;5.526;2023-05-10T00:53:44;20.10;63.10
40289;DHT22;28991;52.028;5.526;2023-05-10T00:56:10;20.00;63.10
40289;DHT22;28991;52.028;5.526;2023-05-10T00:58:36;20.00;63.00
40289;DHT22;28991;52.028;5.526;2023-05-10T01:01:02;19.90;62.90
40289;DHT22;28991;52.028;5.526;2023-05-10T01:03:28;20.10;63.10
40289;DHT22;28991;52.028;5.526;2023-05-10T01:05:54;20.00;63.00
40289;DHT22;28991;52.028;5.526;2023-05-10T01:08:20;20.00;63.00
40289;DHT22;28991;52.028;5.526;2023-05-10T01:10:47;20.50;63.30
40289;DHT22;28991;52.028;5.526;2023-05-10T01:13:23;20.10;63.10
40289;DHT22;28991;52.028;5.526;2023-05-10T01:15:55;20.10;63.10
40289;DHT22;28991;52.028;5.526;2023-05-10T01:18:21;20.00;63.00
40289;DHT22;28991;52.028;5.526;2023-05-10T01:20:54;20.00;63.00
40289;DHT22;28991;52.028;5.526;2023-05-10T01:28:58;20.10;63.10
40289;DHT22;28991;52.028;5.526;2023-05-10T01:34:19;20.00;63.10
40289;DHT22;28991;52.028;5.526;2023-05-10T01:36:52;20.00;63.00
40289;DHT22;28991;52.028;5.526;2023-05-10T01:39:25;20.10;63.10
40289;DHT22;28991;52.028;5.526;2023-05-10T01:44:31;20.10;63.10
40289;DHT22;28991;52.028;5.526;2023-05-10T01:47:10;20.10;63.00
40289;DHT22;28991;52.028;5.526;2023-05-10T01:49:50;20.10;63.10
40289;DHT22;28991;52.028;5.526;2023-05-10T01:52:19;20.10;63.10
40289;DHT22;28991;52.028;5.526;2023-05-10T01:54:53;20.00;63.00
40289;DHT22;28991;52.028;5.526;2023-05-10T01:57:20;20.00;63.00
40289;DHT22;28991;52.028;5.526;2023-05-10T01:59:49;20.00;63.00
40289;DHT22;28991;52.028;5.526;2023-05-10T02:02:17;20.10;63.00
40289;DHT22;28991;52.028;5.526;2023-05-10T02:04:45;20.00;63.00
40289;DHT22;28991;52.028;5.526;2023-05-10T02:07:12;20.00;62.90
40289;DHT22;28991;52.028;5.526;2023-05-10T02:09:38;20.00;63.00
40289;DHT22;28991;52.028;5.526;2023-05-10T02:12:05;20.00;62.90
40289;DHT22;28991;52.028;5.526;2023-05-10T02:14:35;20.00;62.90
40289;DHT22;28991;52.028;5.526;2023-05-10T02:17:03;20.00;62.90
40289;DHT22;28991;52.028;5.526;2023-05-10T02:19:30;20.00;63.00
40289;DHT22;28991;52.028;5.526;2023-05-10T02:21:57;20.00;62.90
40289;DHT22;28991;52.028;5.526;2023-05-10T02:24:24;20.10;63.00
40289;DHT22;28991;52.028;5.526;2023-05-10T02:26:51;20.00;62.90
40289;DHT22;28991;52.028;5.526;2023-05-10T02:29:18;20.40;63.20
40289;DHT22;28991;52.028;5.526;2023-05-10T02:31:45;20.00;63.00
40289;DHT22;28991;52.028;5.526;2023-05-10T02:34:12;20.00;63.00
40289;DHT22;28991;52.028;5.526;2023-05-10T02:36:39;20.00;62.90
40289;DHT22;28991;52.028;5.526;2023-05-10T02:39:06;20.10;63.00
40289;DHT22;28991;52.028;5.526;2023-05-10T02:41:35;20.00;62.90
40289;DHT22;28991;52.028;5.526;2023-05-10T02:44:02;20.20;63.10
40289;DHT22;28991;52.028;5.526;2023-05-10T02:46:29;20.00;62.90
40289;DHT22;28991;52.028;5.526;2023-05-10T02:48:54;20.70;63.40
40289;DHT22;28991;52.028;5.526;2023-05-10T02:51:23;20.00;62.90
40289;DHT22;28991;52.028;5.526;2023-05-10T02:53:51;19.90;62.90
40289;DHT22;28991;52.028;5.526;2023-05-10T02:56:28;20.00;62.90
40289;DHT22;28991;52.028;5.526;2023-05-10T02:58:55;20.00;62.90
40289;DHT22;28991;52.028;5.526;2023-05-10T03:01:21;19.90;62.90
40289;DHT22;28991;52.028;5.526;2023-05-10T03:03:46;20.00;62.90
40289;DHT22;28991;52.028;5.526;2023-05-10T03:06:12;19.90;62.90
40289;DHT22;28991;52.028;5.526;2023-05-10T03:08:37;20.00;62.90
40289;DHT22;28991;52.028;5.526;2023-05-10T03:16:46;20.00;62.90
40289;DHT22;28991;52.028;5.526;2023-05-10T03:19:21;20.00;63.00
40289;DHT22;28991;52.028;5.526;2023-05-10T03:21:50;20.00;62.90
40289;DHT22;28991;52.028;5.526;2023-05-10T03:24:20;20.00;62.90
40289;DHT22;28991;52.028;5.526;2023-05-10T03:26:47;20.00;62.90
40289;DHT22;28991;52.028;5.526;2023-05-10T03:29:14;20.00;62.90
40289;DHT22;28991;52.028;5.526;2023-05-10T03:31:41;20.10;63.00
40289;DHT22;28991;52.028;5.526;2023-05-10T03:34:06;20.00;62.90
40289;DHT22;28991;52.028;5.526;2023-05-10T03:36:32;20.00;62.90
40289;DHT22;28991;52.028;5.526;2023-05-10T03:38:58;20.00;62.90
40289;DHT22;28991;52.028;5.526;2023-05-10T03:41:23;19.90;62.80
40289;DHT22;28991;52.028;5.526;2023-05-10T03:43:50;20.00;62.90
40289;DHT22;28991;52.028;5.526;2023-05-10T03:46:16;20.60;63.30
40289;DHT22;28991;52.028;5.526;2023-05-10T03:48:41;20.20;63.00
40289;DHT22;28991;52.028;5.526;2023-05-10T03:51:07;20.00;62.90
40289;DHT22;28991;52.028;5.526;2023-05-10T03:53:32;20.10;63.00
40289;DHT22;28991;52.028;5.526;2023-05-10T03:55:58;20.00;62.90
40289;DHT22;28991;52.028;5.526;2023-05-10T03:58:23;20.00;62.90
40289;DHT22;28991;52.028;5.526;2023-05-10T04:00:50;20.00;62.90
40289;DHT22;28991;52.028;5.526;2023-05-10T04:03:16;19.90;62.90
40289;DHT22;28991;52.028;5.526;2023-05-10T04:05:42;20.00;62.90
40289;DHT22;28991;52.028;5.526;2023-05-10T04:08:07;19.90;62.80
40289;DHT22;28991;52.028;5.526;2023-05-10T04:10:33;20.00;62.90
40289;DHT22;28991;52.028;5.526;2023-05-10T04:12:58;20.00;62.90
40289;DHT22;28991;52.028;5.526;2023-05-10T04:15:24;20.10;63.00
40289;DHT22;28991;52.028;5.526;2023-05-10T04:17:50;19.90;62.80
40289;DHT22;28991;52.028;5.526;2023-05-10T04:20:15;20.10;63.00
40289;DHT22;28991;52.028;5.526;2023-05-10T04:22:41;20.00;62.90
40289;DHT22;28991;52.028;5.526;2023-05-10T04:25:07;20.00;62.90
40289;DHT22;28991;52.028;5.526;2023-05-10T04:27:33;20.00;62.90
40289;DHT22;28991;52.028;5.526;2023-05-10T04:29:58;20.10;63.00
40289;DHT22;28991;52.028;5.526;2023-05-10T04:32:24;20.00;62.90
40289;DHT22;28991;52.028;5.526;2023-05-10T04:34:50;20.00;62.90
40289;DHT22;28991;52.028;5.526;2023-05-10T04:37:18;20.00;62.90
40289;DHT22;28991;52.028;5.526;2023-05-10T04:39:45;20.00;62.90
40289;DHT22;28991;52.028;5.526;2023-05-10T04:42:10;19.90;62.80
40289;DHT22;28991;52.028;5.526;2023-05-10T04:44:36;20.10;62.90
40289;DHT22;28991;52.028;5.526;2023-05-10T04:47:02;19.90;62.80
40289;DHT22;28991;52.028;5.526;2023-05-10T04:49:28;20.00;62.80
40289;DHT22;28991;52.028;5.526;2023-05-10T04:51:55;20.00;62.80
40289;DHT22;28991;52.028;5.526;2023-05-10T04:54:20;20.10;62.90
40289;DHT22;28991;52.028;5.526;2023-05-10T04:56:46;20.00;62.80
40289;DHT22;28991;52.028;5.526;2023-05-10T04:59:12;19.90;62.80
40289;DHT22;28991;52.028;5.526;2023-05-10T05:01:37;20.00;63.10
40289;DHT22;28991;52.028;5.526;2023-05-10T05:04:03;20.00;62.90
40289;DHT22;28991;52.028;5.526;2023-05-10T05:06:29;20.00;63.00
40289;DHT22;28991;52.028;5.526;2023-05-10T05:08:54;20.00;62.90
40289;DHT22;28991;52.028;5.526;2023-05-10T05:11:20;20.20;62.80
40289;DHT22;28991;52.028;5.526;2023-05-10T05:13:46;20.10;62.60
40289;DHT22;28991;52.028;5.526;2023-05-10T05:16:11;20.10;62.40
40289;DHT22;28991;52.028;5.526;2023-05-10T05:18:37;20.20;62.20
40289;DHT22;28991;52.028;5.526;2023-05-10T05:21:03;20.20;62.00
40289;DHT22;28991;52.028;5.526;2023-05-10T05:23:28;20.40;61.90
40289;DHT22;28991;52.028;5.526;2023-05-10T05:25:54;20.30;61.70
40289;DHT22;28991;52.028;5.526;2023-05-10T05:28:21;20.40;61.60
40289;DHT22;28991;52.028;5.526;2023-05-10T05:30:47;20.50;61.50
40289;DHT22;28991;52.028;5.526;2023-05-10T05:33:15;20.50;61.40
40289;DHT22;28991;52.028;5.526;2023-05-10T05:35:41;20.50;61.40
40289;DHT22;28991;52.028;5.526;2023-05-10T05:38:09;20.70;61.40
40289;DHT22;28991;52.028;5.526;2023-05-10T05:40:35;20.60;61.20
40289;DHT22;28991;52.028;5.526;2023-05-10T05:43:01;20.70;61.20
40289;DHT22;28991;52.028;5.526;2023-05-10T05:45:26;20.70;61.10
40289;DHT22;28991;52.028;5.526;2023-05-10T05:47:52;20.60;61.00
40289;DHT22;28991;52.028;5.526;2023-05-10T05:50:17;20.90;61.10
40289;DHT22;28991;52.028;5.526;2023-05-10T05:52:43;20.80;61.00
40289;DHT22;28991;52.028;5.526;2023-05-10T05:55:08;20.70;60.90
40289;DHT22;28991;52.028;5.526;2023-05-10T05:57:34;20.70;61.00
40289;DHT22;28991;52.028;5.526;2023-05-10T05:59:59;20.80;60.90
40289;DHT22;28991;52.028;5.526;2023-05-10T06:02:25;20.80;60.80
40289;DHT22;28991;52.028;5.526;2023-05-10T06:04:50;20.70;60.80
40289;DHT22;28991;52.028;5.526;2023-05-10T06:07:16;20.80;60.80
40289;DHT22;28991;52.028;5.526;2023-05-10T06:09:42;20.70;60.70
40289;DHT22;28991;52.028;5.526;2023-05-10T06:12:07;20.70;60.70
40289;DHT22;28991;52.028;5.526;2023-05-10T06:14:33;20.70;60.60
40289;DHT22;28991;52.028;5.526;2023-05-10T06:16:58;20.70;60.60
40289;DHT22;28991;52.028;5.526;2023-05-10T06:19:25;20.70;60.60
40289;DHT22;28991;52.028;5.526;2023-05-10T06:21:51;20.70;60.60
40289;DHT22;28991;52.028;5.526;2023-05-10T06:24:17;20.70;60.60
40289;DHT22;28991;52.028;5.526;2023-05-10T06:26:42;20.70;60.60
40289;DHT22;28991;52.028;5.526;2023-05-10T06:29:08;20.70;60.60
40289;DHT22;28991;52.028;5.526;2023-05-10T06:31:34;20.80;60.60
40289;DHT22;28991;52.028;5.526;2023-05-10T06:33:59;20.80;60.50
40289;DHT22;28991;52.028;5.526;2023-05-10T06:36:25;20.90;60.40
40289;DHT22;28991;52.028;5.526;2023-05-10T06:38:51;20.90;60.30
40289;DHT22;28991;52.028;5.526;2023-05-10T06:41:17;21.00;60.40
40289;DHT22;28991;52.028;5.526;2023-05-10T06:43:42;20.90;60.20
40289;DHT22;28991;52.028;5.526;2023-05-10T06:46:08;21.00;60.20
40289;DHT22;28991;52.028;5.526;2023-05-10T06:48:34;21.00;60.20
40289;DHT22;28991;52.028;5.526;2023-05-10T06:51:00;21.00;60.10
40289;DHT22;28991;52.028;5.526;2023-05-10T06:53:25;21.10;60.20
40289;DHT22;28991;52.028;5.526;2023-05-10T06:55:51;21.20;60.10
40289;DHT22;28991;52.028;5.526;2023-05-10T06:58:16;21.10;60.00
40289;DHT22;28991;52.028;5.526;2023-05-10T07:00:42;21.10;60.00
40289;DHT22;28991;52.028;5.526;2023-05-10T07:03:09;21.10;60.00
40289;DHT22;28991;52.028;5.526;2023-05-10T07:05:35;21.00;59.80
40289;DHT22;28991;52.028;5.526;2023-05-10T07:08:00;21.20;60.00
40289;DHT22;28991;52.028;5.526;2023-05-10T07:10:26;21.20;59.60
40289;DHT22;28991;52.028;5.526;2023-05-10T07:12:52;21.20;59.80
40289;DHT22;28991;52.028;5.526;2023-05-10T07:15:18;21.20;59.70
40289;DHT22;28991;52.028;5.526;2023-05-10T07:17:43;21.30;59.60
40289;DHT22;28991;52.028;5.526;2023-05-10T07:20:09;21.30;59.60
40289;DHT22;28991;52.028;5.526;2023-05-10T07:22:35;21.30;59.50
40289;DHT22;28991;52.028;5.526;2023-05-10T07:25:00;21.30;59.50
40289;DHT22;28991;52.028;5.526;2023-05-10T07:27:26;21.30;59.50
40289;DHT22;28991;52.028;5.526;2023-05-10T07:29:51;21.30;59.50
40289;DHT22;28991;52.028;5.526;2023-05-10T07:32:17;21.40;59.40
40289;DHT22;28991;52.028;5.526;2023-05-10T07:34:42;21.30;59.30
40289;DHT22;28991;52.028;5.526;2023-05-10T07:37:08;21.40;59.30
40289;DHT22;28991;52.028;5.526;2023-05-10T07:39:33;21.40;59.30
40289;DHT22;28991;52.028;5.526;2023-05-10T07:41:59;21.40;59.30
40289;DHT22;28991;52.028;5.526;2023-05-10T07:44:24;21.40;59.20
40289;DHT22;28991;52.028;5.526;2023-05-10T07:46:50;21.40;59.20
40289;DHT22;28991;52.028;5.526;2023-05-10T07:49:16;21.40;59.20
40289;DHT22;28991;52.028;5.526;2023-05-10T07:51:41;21.40;59.20
40289;DHT22;28991;52.028;5.526;2023-05-10T07:54:07;21.40;59.10
40289;DHT22;28991;52.028;5.526;2023-05-10T07:56:33;21.40;59.10
40289;DHT22;28991;52.028;5.526;2023-05-10T07:59:00;21.40;59.00
40289;DHT22;28991;52.028;5.526;2023-05-10T08:01:26;21.40;59.00
40289;DHT22;28991;52.028;5.526;2023-05-10T08:03:52;21.40;58.90
40289;DHT22;28991;52.028;5.526;2023-05-10T08:06:19;21.40;58.80
40289;DHT22;28991;52.028;5.526;2023-05-10T08:08:48;21.40;58.70
40289;DHT22;28991;52.028;5.526;2023-05-10T08:11:19;21.50;58.60
40289;DHT22;28991;52.028;5.526;2023-05-10T08:13:46;21.50;58.50
40289;DHT22;28991;52.028;5.526;2023-05-10T08:16:12;21.50;58.40
40289;DHT22;28991;52.028;5.526;2023-05-10T08:18:38;21.50;58.30
40289;DHT22;28991;52.028;5.526;2023-05-10T08:21:04;22.00;58.40
40289;DHT22;28991;52.028;5.526;2023-05-10T08:23:30;21.50;58.20
40289;DHT22;28991;52.028;5.526;2023-05-10T08:25:56;21.50;58.00
40289;DHT22;28991;52.028;5.526;2023-05-10T08:28:22;21.50;58.00
40289;DHT22;28991;52.028;5.526;2023-05-10T08:30:47;21.50;57.90
40289;DHT22;28991;52.028;5.526;2023-05-10T08:33:13;21.50;58.00
40289;DHT22;28991;52.028;5.526;2023-05-10T08:35:38;21.50;57.80
40289;DHT22;28991;52.028;5.526;2023-05-10T08:38:04;21.50;57.80
40289;DHT22;28991;52.028;5.526;2023-05-10T08:40:29;21.50;57.90
40289;DHT22;28991;52.028;5.526;2023-05-10T08:43:07;21.40;57.80
40289;DHT22;28991;52.028;5.526;2023-05-10T08:45:37;21.50;57.80
40289;DHT22;28991;52.028;5.526;2023-05-10T08:48:05;21.40;57.70
40289;DHT22;28991;52.028;5.526;2023-05-10T08:50:31;21.40;57.70
40289;DHT22;28991;52.028;5.526;2023-05-10T08:53:00;21.40;57.70
40289;DHT22;28991;52.028;5.526;2023-05-10T08:55:26;21.70;57.70
40289;DHT22;28991;52.028;5.526;2023-05-10T08:57:52;21.60;57.60
40289;DHT22;28991;52.028;5.526;2023-05-10T09:00:18;21.60;57.60
40289;DHT22;28991;52.028;5.526;2023-05-10T09:02:44;21.60;57.60
40289;DHT22;28991;52.028;5.526;2023-05-10T09:05:13;21.60;57.60
40289;DHT22;28991;52.028;5.526;2023-05-10T09:07:41;21.60;57.60
40289;DHT22;28991;52.028;5.526;2023-05-10T09:10:07;21.60;57.60
40289;DHT22;28991;52.028;5.526;2023-05-10T09:12:34;21.70;57.70
40289;DHT22;28991;52.028;5.526;2023-05-10T09:15:00;21.70;57.70
40289;DHT22;28991;52.028;5.526;2023-05-10T09:17:27;21.60;57.60
40289;DHT22;28991;52.028;5.526;2023-05-10T09:20:01;21.70;57.70
40289;DHT22;28991;52.028;5.526;2023-05-10T09:22:28;21.70;57.60
40289;DHT22;28991;52.028;5.526;2023-05-10T09:25:23;21.70;57.60
40289;DHT22;28991;52.028;5.526;2023-05-10T09:27:49;21.70;57.60
40289;DHT22;28991;52.028;5.526;2023-05-10T09:30:26;21.70;57.50
40289;DHT22;28991;52.028;5.526;2023-05-10T09:32:52;21.70;57.50
40289;DHT22;28991;52.028;5.526;2023-05-10T09:35:22;21.70;57.40
40289;DHT22;28991;52.028;5.526;2023-05-10T09:37:50;21.70;57.30
40289;DHT22;28991;52.028;5.526;2023-05-10T09:40:19;21.80;57.30
40289;DHT22;28991;52.028;5.526;2023-05-10T09:43:02;21.80;57.20
40289;DHT22;28991;52.028;5.526;2023-05-10T09:45:32;21.80;57.20
40289;DHT22;28991;52.028;5.526;2023-05-10T09:47:59;21.80;57.20
40289;DHT22;28991;52.028;5.526;2023-05-10T09:50:26;21.80;57.30
40289;DHT22;28991;52.028;5.526;2023-05-10T09:52:52;21.80;57.20
40289;DHT22;28991;52.028;5.526;2023-05-10T09:55:20;21.80;57.20
40289;DHT22;28991;52.028;5.526;2023-05-10T09:57:47;21.80;57.20
40289;DHT22;28991;52.028;5.526;2023-05-10T10:00:20;21.80;57.30
40289;DHT22;28991;52.028;5.526;2023-05-10T10:02:46;21.80;57.30
40289;DHT22;28991;52.028;5.526;2023-05-10T10:05:12;21.80;57.40
40289;DHT22;28991;52.028;5.526;2023-05-10T10:07:39;21.80;57.30
40289;DHT22;28991;52.028;5.526;2023-05-10T10:10:05;21.80;57.20
40289;DHT22;28991;52.028;5.526;2023-05-10T10:12:36;21.70;57.00
40289;DHT22;28991;52.028;5.526;2023-05-10T10:15:03;21.80;57.00
40289;DHT22;28991;52.028;5.526;2023-05-10T10:17:30;21.70;56.90
40289;DHT22;28991;52.028;5.526;2023-05-10T10:19:57;21.70;56.90
40289;DHT22;28991;52.028;5.526;2023-05-10T10:22:22;21.80;56.90
40289;DHT22;28991;52.028;5.526;2023-05-10T10:24:48;21.70;56.80
40289;DHT22;28991;52.028;5.526;2023-05-10T10:30:22;21.70;56.60
40289;DHT22;28991;52.028;5.526;2023-05-10T10:35:25;21.80;56.70
40289;DHT22;28991;52.028;5.526;2023-05-10T10:37:51;21.80;56.70
40289;DHT22;28991;52.028;5.526;2023-05-10T10:40:29;21.80;56.60
40289;DHT22;28991;52.028;5.526;2023-05-10T10:42:56;21.80;56.60
40289;DHT22;28991;52.028;5.526;2023-05-10T10:45:23;21.80;56.60
40289;DHT22;28991;52.028;5.526;2023-05-10T10:48:19;21.80;56.60
40289;DHT22;28991;52.028;5.526;2023-05-10T10:50:45;21.80;56.50
40289;DHT22;28991;52.028;5.526;2023-05-10T10:53:12;21.90;56.50
40289;DHT22;28991;52.028;5.526;2023-05-10T10:55:46;21.90;56.50
40289;DHT22;28991;52.028;5.526;2023-05-10T10:58:29;21.90;56.50
40289;DHT22;28991;52.028;5.526;2023-05-10T11:03:40;21.80;56.50
40289;DHT22;28991;52.028;5.526;2023-05-10T11:06:06;21.90;56.50
40289;DHT22;28991;52.028;5.526;2023-05-10T11:08:34;21.90;56.50
40289;DHT22;28991;52.028;5.526;2023-05-10T11:13:45;21.90;56.50
40289;DHT22;28991;52.028;5.526;2023-05-10T11:19:05;21.90;56.30
40289;DHT22;28991;52.028;5.526;2023-05-10T11:21:33;21.90;56.20
40289;DHT22;28991;52.028;5.526;2023-05-10T11:24:00;21.90;56.20
40289;DHT22;28991;52.028;5.526;2023-05-10T11:26:32;21.90;56.30
40289;DHT22;28991;52.028;5.526;2023-05-10T11:28:59;21.90;56.30
40289;DHT22;28991;52.028;5.526;2023-05-10T11:31:26;22.40;56.50
40289;DHT22;28991;52.028;5.526;2023-05-10T11:33:56;21.90;56.30
40289;DHT22;28991;52.028;5.526;2023-05-10T11:36:32;21.90;56.30
40289;DHT22;28991;52.028;5.526;2023-05-10T11:38:58;21.90;56.20
40289;DHT22;28991;52.028;5.526;2023-05-10T11:41:24;22.00;56.30
40289;DHT22;28991;52.028;5.526;2023-05-10T11:43:51;22.10;56.30
40289;DHT22;28991;52.028;5.526;2023-05-10T11:46:19;21.90;56.20
40289;DHT22;28991;52.028;5.526;2023-05-10T11:48:47;21.90;56.20
40289;DHT22;28991;52.028;5.526;2023-05-10T11:51:15;21.90;56.20
40289;DHT22;28991;52.028;5.526;2023-05-10T11:53:40;21.90;56.20
40289;DHT22;28991;52.028;5.526;2023-05-10T11:56:07;21.90;56.10
40289;DHT22;28991;52.028;5.526;2023-05-10T11:58:37;21.90;56.20
40289;DHT22;28991;52.028;5.526;2023-05-10T12:01:04;21.90;56.20
40289;DHT22;28991;52.028;5.526;2023-05-10T12:03:30;21.90;56.10
40289;DHT22;28991;52.028;5.526;2023-05-10T12:05:57;21.90;56.00
40289;DHT22;28991;52.028;5.526;2023-05-10T12:08:25;22.00;55.80
40289;DHT22;28991;52.028;5.526;2023-05-10T12:10:52;22.00;55.70
40289;DHT22;28991;52.028;5.526;2023-05-10T12:13:19;22.00;55.50
40289;DHT22;28991;52.028;5.526;2023-05-10T12:15:46;22.20;55.40
40289;DHT22;28991;52.028;5.526;2023-05-10T12:18:12;22.10;55.30
40289;DHT22;28991;52.028;5.526;2023-05-10T12:20:39;22.20;55.20
40289;DHT22;28991;52.028;5.526;2023-05-10T12:23:05;22.20;55.20
40289;DHT22;28991;52.028;5.526;2023-05-10T12:25:35;22.20;55.20
40289;DHT22;28991;52.028;5.526;2023-05-10T12:28:03;22.30;55.30
40289;DHT22;28991;52.028;5.526;2023-05-10T12:30:32;22.20;55.30
40289;DHT22;28991;52.028;5.526;2023-05-10T12:33:02;22.30;55.30
40289;DHT22;28991;52.028;5.526;2023-05-10T12:35:32;22.30;55.20
40289;DHT22;28991;52.028;5.526;2023-05-10T12:37:58;22.30;55.30
40289;DHT22;28991;52.028;5.526;2023-05-10T12:40:23;22.20;55.30
40289;DHT22;28991;52.028;5.526;2023-05-10T12:42:49;22.20;55.40
40289;DHT22;28991;52.028;5.526;2023-05-10T12:45:17;22.20;55.40
40289;DHT22;28991;52.028;5.526;2023-05-10T12:47:43;22.20;55.40
40289;DHT22;28991;52.028;5.526;2023-05-10T12:50:09;22.20;55.40
40289;DHT22;28991;52.028;5.526;2023-05-10T12:52:35;22.20;55.40
40289;DHT22;28991;52.028;5.526;2023-05-10T12:55:00;22.10;55.40
40289;DHT22;28991;52.028;5.526;2023-05-10T12:57:26;22.10;55.50
40289;DHT22;28991;52.028;5.526;2023-05-10T12:59:54;22.00;55.40
40289;DHT22;28991;52.028;5.526;2023-05-10T13:02:20;22.10;55.60
40289;DHT22;28991;52.028;5.526;2023-05-10T13:04:47;22.00;55.50
40289;DHT22;28991;52.028;5.526;2023-05-10T13:07:13;22.00;55.60
40289;DHT22;28991;52.028;5.526;2023-05-10T13:09:39;22.00;55.70
40289;DHT22;28991;52.028;5.526;2023-05-10T13:12:05;22.00;55.80
40289;DHT22;28991;52.028;5.526;2023-05-10T13:14:31;21.90;55.80
40289;DHT22;28991;52.028;5.526;2023-05-10T13:16:56;21.80;55.80
40289;DHT22;28991;52.028;5.526;2023-05-10T13:19:22;21.90;55.90
40289;DHT22;28991;52.028;5.526;2023-05-10T13:21:48;21.90;56.00
40289;DHT22;28991;52.028;5.526;2023-05-10T13:24:13;21.80;56.00
40289;DHT22;28991;52.028;5.526;2023-05-10T13:26:39;21.80;56.20
40289;DHT22;28991;52.028;5.526;2023-05-10T13:29:06;21.80;56.30
40289;DHT22;28991;52.028;5.526;2023-05-10T13:31:31;21.90;56.40
40289;DHT22;28991;52.028;5.526;2023-05-10T13:33:57;21.80;56.40
40289;DHT22;28991;52.028;5.526;2023-05-10T13:36:22;21.80;56.40
40289;DHT22;28991;52.028;5.526;2023-05-10T13:38:48;21.80;56.40
40289;DHT22;28991;52.028;5.526;2023-05-10T13:41:14;21.70;56.50
40289;DHT22;28991;52.028;5.526;2023-05-10T13:43:40;21.70;56.60
40289;DHT22;28991;52.028;5.526;2023-05-10T13:46:05;21.80;56.70
40289;DHT22;28991;52.028;5.526;2023-05-10T13:48:31;21.90;56.80
40289;DHT22;28991;52.028;5.526;2023-05-10T13:50:56;21.80;56.80
40289;DHT22;28991;52.028;5.526;2023-05-10T13:53:22;21.60;56.90
40289;DHT22;28991;52.028;5.526;2023-05-10T13:55:48;21.60;57.30
40289;DHT22;28991;52.028;5.526;2023-05-10T13:58:13;21.50;57.40
40289;DHT22;28991;52.028;5.526;2023-05-10T14:00:39;21.50;57.40
40289;DHT22;28991;52.028;5.526;2023-05-10T14:03:05;21.50;57.50
40289;DHT22;28991;52.028;5.526;2023-05-10T14:05:31;21.40;57.40
40289;DHT22;28991;52.028;5.526;2023-05-10T14:07:57;21.40;57.50
40289;DHT22;28991;52.028;5.526;2023-05-10T14:10:22;21.40;57.50
40289;DHT22;28991;52.028;5.526;2023-05-10T14:12:49;21.40;57.60
40289;DHT22;28991;52.028;5.526;2023-05-10T14:15:14;21.40;57.70
40289;DHT22;28991;52.028;5.526;2023-05-10T14:17:40;21.40;57.80
40289;DHT22;28991;52.028;5.526;2023-05-10T14:20:06;21.40;57.80
40289;DHT22;28991;52.028;5.526;2023-05-10T14:22:32;21.30;57.80
40289;DHT22;28991;52.028;5.526;2023-05-10T14:24:58;21.20;58.00
40289;DHT22;28991;52.028;5.526;2023-05-10T14:27:23;21.20;58.00
40289;DHT22;28991;52.028;5.526;2023-05-10T14:29:49;21.20;58.20
40289;DHT22;28991;52.028;5.526;2023-05-10T14:32:15;21.40;58.20
40289;DHT22;28991;52.028;5.526;2023-05-10T14:34:41;21.20;58.00
40289;DHT22;28991;52.028;5.526;2023-05-10T14:37:06;21.10;58.00
40289;DHT22;28991;52.028;5.526;2023-05-10T14:39:32;21.20;58.00
40289;DHT22;28991;52.028;5.526;2023-05-10T14:41:58;21.20;58.10
40289;DHT22;28991;52.028;5.526;2023-05-10T14:44:24;21.20;58.10
40289;DHT22;28991;52.028;5.526;2023-05-10T14:46:50;21.20;58.10
40289;DHT22;28991;52.028;5.526;2023-05-10T14:49:16;21.10;58.70
40289;DHT22;28991;52.028;5.526;2023-05-10T14:51:41;21.20;58.10
40289;DHT22;28991;52.028;5.526;2023-05-10T14:54:07;20.90;58.00
40289;DHT22;28991;52.028;5.526;2023-05-10T14:56:33;21.50;58.40
40289;DHT22;28991;52.028;5.526;2023-05-10T14:58:58;21.10;58.20
40289;DHT22;28991;52.028;5.526;2023-05-10T15:01:25;21.10;58.20
40289;DHT22;28991;52.028;5.526;2023-05-10T15:03:51;21.20;58.30
40289;DHT22;28991;52.028;5.526;2023-05-10T15:06:16;21.40;58.40
40289;DHT22;28991;52.028;5.526;2023-05-10T15:08:42;21.30;58.30
40289;DHT22;28991;52.028;5.526;2023-05-10T15:11:08;21.10;58.20
40289;DHT22;28991;52.028;5.526;2023-05-10T15:13:34;21.10;58.30
40289;DHT22;28991;52.028;5.526;2023-05-10T15:15:59;21.10;58.30
40289;DHT22;28991;52.028;5.526;2023-05-10T15:18:25;21.10;58.40
40289;DHT22;28991;52.028;5.526;2023-05-10T15:20:51;21.10;58.30
40289;DHT22;28991;52.028;5.526;2023-05-10T15:23:16;21.00;58.20
40289;DHT22;28991;52.028;5.526;2023-05-10T15:25:42;21.10;58.30
40289;DHT22;28991;52.028;5.526;2023-05-10T15:28:07;21.10;58.30
40289;DHT22;28991;52.028;5.526;2023-05-10T15:30:33;21.10;58.40
40289;DHT22;28991;52.028;5.526;2023-05-10T15:32:59;21.20;58.40
40289;DHT22;28991;52.028;5.526;2023-05-10T15:35:25;21.10;58.40
40289;DHT22;28991;52.028;5.526;2023-05-10T15:37:51;21.10;58.40
40289;DHT22;28991;52.028;5.526;2023-05-10T15:40:17;21.20;58.50
40289;DHT22;28991;52.028;5.526;2023-05-10T15:42:42;21.10;58.40
40289;DHT22;28991;52.028;5.526;2023-05-10T15:45:08;21.20;58.50
40289;DHT22;28991;52.028;5.526;2023-05-10T15:47:34;21.20;58.40
40289;DHT22;28991;52.028;5.526;2023-05-10T15:50:00;21.20;58.50
40289;DHT22;28991;52.028;5.526;2023-05-10T15:52:25;21.20;58.50
40289;DHT22;28991;52.028;5.526;2023-05-10T15:54:51;21.20;58.50
40289;DHT22;28991;52.028;5.526;2023-05-10T15:57:17;21.20;58.50